Time;durP1;ratioP1;P1;durP2;ratioP2;P2;SDS_P1;SDS_P2;PMS_P1;PMS_P2;Temp;Humidity;BMP_temperature;BMP_pressure;BME280_temperature;BME280_humidity;BME280_pressure;Samples;Min_cycle;Max_cycle;Signal;HPM_P1;HPM_P2
2022/07/31 00:00:27;;;;;;;;;;;;;;;16.60;56.64;100419.38;5037170;28;974;-53
2022/07/31 00:02:53;;;;;;;;;;;;;;;16.54;56.76;100420.50;5037197;28;2103;-53
2022/07/31 00:05:19;;;;;;;;;;;;;;;16.56;56.91;100415.56;5042528;28;994;-51
2022/07/31 00:07:44;;;;;;;;;;;;;;;16.54;56.64;100415.03;5041784;28;1074;-52
2022/07/31 00:10:09;;;;;;;;;;;;;;;16.57;56.54;100403.47;5044774;28;1913;-50
2022/07/31 00:12:35;;;;;;;;;;;;;;;16.52;56.66;100406.25;5040950;28;970;-51
2022/07/31 00:15:01;;;;;;;;;;;;;;;16.55;56.64;100422.13;5038746;28;1116;-51
2022/07/31 00:17:27;;;;;;;;;;;;;;;16.48;56.84;100416.13;5036544;28;1116;-51
2022/07/31 00:19:52;;;;;;;;;;;;;;;16.51;56.85;100421.06;5038616;28;1181;-53
2022/07/31 00:22:17;;;;;;;;;;;;;;;16.49;56.87;100431.50;5037180;28;1140;-50
2022/07/31 00:24:43;;;;;;;;;;;;;;;16.51;56.63;100423.81;5040488;28;1053;-53
2022/07/31 00:27:09;;;;;;;;;;;;;;;16.48;56.70;100427.13;5040010;28;986;-52
2022/07/31 00:29:35;;;;;;;;;;;;;;;16.41;56.92;100433.75;5022324;28;1909;-50
2022/07/31 00:32:01;;;;;;;;;;;;;;;16.40;56.73;100432.09;5020004;28;1204;-51
2022/07/31 00:34:26;;;;;;;;;;;;;;;16.43;56.49;100437.00;5018891;28;1902;-53
2022/07/31 00:36:52;;;;;;;;;;;;;;;16.38;56.75;100444.44;5036229;28;1061;-50
2022/07/31 00:39:17;;;;;;;;;;;;;;;16.43;56.71;100447.19;5038654;28;1014;-51
2022/07/31 00:41:43;;;;;;;;;;;;;;;16.48;56.44;100449.06;5045207;28;1014;-53
2022/07/31 00:44:09;;;;;;;;;;;;;;;16.42;56.63;100451.84;5041639;28;1052;-50
2022/07/31 00:46:34;;;;;;;;;;;;;;;16.82;57.74;100446.44;5043684;28;907;-51
2022/07/31 00:49:00;;;;;;;;;;;;;;;17.52;58.42;100433.63;5039110;28;1988;-54
2022/07/31 00:51:25;;;;;;;;;;;;;;;17.08;58.61;100455.38;5023798;28;1152;-54
2022/07/31 00:53:51;;;;;;;;;;;;;;;16.90;58.21;100453.28;5019623;28;1588;-54
2022/07/31 00:56:16;;;;;;;;;;;;;;;16.77;57.91;100452.78;5020791;28;1606;-54
2022/07/31 00:58:42;;;;;;;;;;;;;;;16.80;57.69;100458.81;5018161;28;995;-55
2022/07/31 01:01:07;;;;;;;;;;;;;;;16.71;57.51;100455.84;5036158;28;1073;-55
2022/07/31 01:03:33;;;;;;;;;;;;;;;16.71;57.20;100453.09;5047766;28;2239;-54
2022/07/31 01:05:58;;;;;;;;;;;;;;;16.71;56.97;100458.59;5040553;28;1045;-54
2022/07/31 01:08:23;;;;;;;;;;;;;;;16.68;56.97;100454.47;5043181;28;1977;-55
2022/07/31 01:10:57;;;;;;;;;;;;;;;16.60;56.97;100455.06;5021667;28;2275;-54
2022/07/31 01:13:29;;;;;;;;;;;;;;;16.66;56.67;100461.34;5027921;28;1211;-55
2022/07/31 01:15:54;;;;;;;;;;;;;;;16.57;56.79;100456.44;5023655;28;1311;-53
2022/07/31 01:18:20;;;;;;;;;;;;;;;16.62;56.86;100452.03;5024757;28;1093;-56
2022/07/31 01:20:45;;;;;;;;;;;;;;;16.56;56.81;100441.09;5008646;28;1149;-55
2022/07/31 01:23:17;;;;;;;;;;;;;;;16.50;56.87;100444.13;5042030;28;957;-55
2022/07/31 01:26:03;;;;;;;;;;;;;;;16.59;56.61;100439.69;5043245;28;1206;-56
2022/07/31 01:28:41;;;;;;;;;;;;;;;16.52;56.66;100440.00;5022387;28;1979;-56
2022/07/31 01:31:08;;;;;;;;;;;;;;;16.56;56.56;100440.25;5022236;28;1173;-54
2022/07/31 01:33:35;;;;;;;;;;;;;;;16.48;56.98;100432.59;4995384;28;2050;-52
2022/07/31 01:36:11;;;;;;;;;;;;;;;16.48;56.91;100435.34;5029853;28;990;-53
2022/07/31 01:38:37;;;;;;;;;;;;;;;16.50;56.69;100427.66;5045237;28;1021;-50
2022/07/31 01:41:08;;;;;;;;;;;;;;;16.52;56.82;100419.97;5046698;28;978;-53
2022/07/31 01:43:36;;;;;;;;;;;;;;;16.42;57.06;100426.31;5024739;28;1069;-53
2022/07/31 01:46:03;;;;;;;;;;;;;;;16.45;56.77;100423.00;5026344;28;1197;-52
2022/07/31 01:48:30;;;;;;;;;;;;;;;16.50;56.80;100416.69;5023888;28;1910;-53
2022/07/31 01:50:56;;;;;;;;;;;;;;;16.46;56.82;100407.38;5023209;28;1121;-53
2022/07/31 01:53:22;;;;;;;;;;;;;;;16.40;56.98;100412.88;5022691;28;1247;-53
2022/07/31 01:55:49;;;;;;;;;;;;;;;16.52;56.57;100401.59;5020332;28;1200;-50
2022/07/31 01:58:15;;;;;;;;;;;;;;;16.46;56.60;100393.66;5022619;28;1135;-48
2022/07/31 02:00:41;;;;;;;;;;;;;;;16.46;56.93;100401.88;5023446;28;1522;-48
2022/07/31 02:03:07;;;;;;;;;;;;;;;16.44;56.96;100396.69;5005056;28;1269;-50
2022/07/31 02:05:34;;;;;;;;;;;;;;;17.31;58.32;100391.75;5025172;28;1326;-48
2022/07/31 02:08:01;;;;;;;;;;;;;;;17.34;58.83;100405.72;5028520;28;1969;-50
2022/07/31 02:10:30;;;;;;;;;;;;;;;17.01;58.48;100407.34;5028318;28;1165;-50
2022/07/31 02:12:56;;;;;;;;;;;;;;;16.81;58.28;100403.59;5010708;28;1598;-51
2022/07/31 02:15:21;;;;;;;;;;;;;;;16.82;57.67;100390.72;5042973;28;958;-51
2022/07/31 02:17:47;;;;;;;;;;;;;;;16.73;57.61;100395.97;5009392;28;1176;-48
2022/07/31 02:20:22;;;;;;;;;;;;;;;16.74;57.27;100403.09;5022221;28;994;-50
2022/07/31 02:22:48;;;;;;;;;;;;;;;16.72;57.01;100405.31;5023572;28;954;-48
2022/07/31 02:25:14;;;;;;;;;;;;;;;16.66;57.08;100396.31;5039478;28;1185;-51
2022/07/31 02:27:39;;;;;;;;;;;;;;;16.66;56.96;100401.78;5021568;28;1192;-49
2022/07/31 02:30:06;;;;;;;;;;;;;;;16.61;56.99;100401.81;5003720;28;1921;-48
2022/07/31 02:32:31;;;;;;;;;;;;;;;16.61;56.79;100401.81;5029162;28;1019;-51
2022/07/31 02:34:58;;;;;;;;;;;;;;;16.55;56.97;100395.53;5027847;28;1180;-48
2022/07/31 02:37:23;;;;;;;;;;;;;;;16.51;56.81;100388.13;5025622;28;1045;-48
2022/07/31 02:39:49;;;;;;;;;;;;;;;16.55;56.62;100395.53;5010694;28;1187;-51
2022/07/31 02:42:15;;;;;;;;;;;;;;;16.56;56.92;100393.59;5006299;28;1023;-50
2022/07/31 02:44:41;;;;;;;;;;;;;;;16.51;56.59;100393.59;5025275;28;1137;-49
2022/07/31 02:47:06;;;;;;;;;;;;;;;16.47;56.89;100381.59;5021535;28;1170;-47
2022/07/31 02:49:32;;;;;;;;;;;;;;;16.52;56.67;100384.28;5021953;28;1898;-48
2022/07/31 02:51:59;;;;;;;;;;;;;;;16.45;56.84;100378.28;5003533;28;1400;-49
2022/07/31 02:54:24;;;;;;;;;;;;;;;16.53;56.43;100380.44;5020634;28;1057;-49
2022/07/31 02:56:51;;;;;;;;;;;;;;;16.48;56.49;100380.47;5030195;28;1511;-49
2022/07/31 02:59:16;;;;;;;;;;;;;;;16.45;56.62;100375.53;5024466;28;1108;-50
2022/07/31 03:01:56;;;;;;;;;;;;;;;16.44;56.63;100382.97;5016114;28;1143;-51
2022/07/31 03:04:23;;;;;;;;;;;;;;;16.46;56.60;100377.19;5022946;28;1572;-50
2022/07/31 03:06:49;;;;;;;;;;;;;;;17.10;58.20;100376.25;5025219;28;1153;-50
2022/07/31 03:09:15;;;;;;;;;;;;;;;17.37;58.75;100371.34;5039475;28;1964;-51
2022/07/31 03:11:41;;;;;;;;;;;;;;;17.01;58.68;100372.47;5021632;28;1385;-50
2022/07/31 03:14:07;;;;;;;;;;;;;;;16.87;58.24;100365.94;5003356;28;1499;-48
2022/07/31 03:16:33;;;;;;;;;;;;;;;16.75;57.79;100371.81;5004524;28;1228;-50
2022/07/31 03:19:00;;;;;;;;;;;;;;;16.80;57.59;100373.69;5011817;28;1236;-48
2022/07/31 03:21:25;;;;;;;;;;;;;;;16.73;57.42;100374.84;5020855;28;974;-48
2022/07/31 03:23:51;;;;;;;;;;;;;;;16.71;56.83;100373.47;5004084;28;1092;-46
2022/07/31 03:26:20;;;;;;;;;;;;;;;16.67;56.97;100359.47;5019043;28;1117;-50
2022/07/31 03:28:46;;;;;;;;;;;;;;;16.59;57.07;100358.19;5008788;28;1969;-48
2022/07/31 03:31:11;;;;;;;;;;;;;;;16.57;56.95;100365.84;5012524;28;1229;-51
2022/07/31 03:33:37;;;;;;;;;;;;;;;16.61;56.65;100366.13;5023625;28;1222;-54
2022/07/31 03:36:03;;;;;;;;;;;;;;;16.58;56.63;100366.69;5024226;28;1353;-54
2022/07/31 03:38:29;;;;;;;;;;;;;;;16.57;56.81;100360.38;5016366;28;1131;-56
2022/07/31 03:40:55;;;;;;;;;;;;;;;16.56;56.61;100357.91;5024733;28;2028;-54
2022/07/31 03:43:20;;;;;;;;;;;;;;;16.56;56.73;100364.25;5039472;28;1030;-54
2022/07/31 03:45:46;;;;;;;;;;;;;;;16.54;56.49;100366.44;5001897;28;1201;-54
2022/07/31 03:48:11;;;;;;;;;;;;;;;16.53;56.59;100353.00;5037812;28;1910;-64
2022/07/31 03:50:37;;;;;;;;;;;;;;;16.47;56.69;100349.47;5018167;28;880;-63
2022/07/31 03:53:06;;;;;;;;;;;;;;;16.47;56.69;100345.91;5017965;28;2098;-61
2022/07/31 03:55:34;;;;;;;;;;;;;;;16.68;59.33;100341.91;5008062;28;1277;-63
2022/07/31 03:57:59;;;;;;;;;;;;;;;16.75;60.53;100347.09;5027115;28;1234;-62
2022/07/31 04:00:26;;;;;;;;;;;;;;;16.76;60.45;100341.31;5018834;28;1210;-61
2022/07/31 04:02:54;;;;;;;;;;;;;;;16.84;60.47;100345.38;5002286;28;1360;-61
2022/07/31 04:05:46;;;;;;;;;;;;;;;16.89;61.41;100347.31;5019405;28;1331;-60
2022/07/31 04:08:11;;;;;;;;;;;;;;;16.95;61.74;100342.59;5018534;28;1898;-61
2022/07/31 04:10:37;;;;;;;;;;;;;;;17.00;62.10;100350.78;5018590;28;1334;-59
2022/07/31 04:13:04;;;;;;;;;;;;;;;16.98;61.71;100347.50;5018200;28;1429;-62
2022/07/31 04:15:29;;;;;;;;;;;;;;;16.98;61.19;100344.75;5023781;28;1270;-60
2022/07/31 04:17:55;;;;;;;;;;;;;;;17.00;60.56;100348.03;5018448;28;1161;-56
2022/07/31 04:20:26;;;;;;;;;;;;;;;17.02;60.13;100346.63;5019418;28;1172;-54
2022/07/31 04:22:52;;;;;;;;;;;;;;;17.02;60.09;100349.38;5021189;28;2499;-56
2022/07/31 04:25:37;;;;;;;;;;;;;;;16.99;59.71;100344.47;5035607;28;1209;-57
2022/07/31 04:28:21;;;;;;;;;;;;;;;17.02;59.48;100348.56;5038095;28;1902;-52
2022/07/31 04:30:47;;;;;;;;;;;;;;;17.05;59.31;100337.81;5022107;28;1199;-56
2022/07/31 04:33:13;;;;;;;;;;;;;;;17.01;59.20;100342.28;5023466;28;1840;-55
2022/07/31 04:35:40;;;;;;;;;;;;;;;17.01;59.35;100346.91;5034409;28;1006;-55
2022/07/31 04:38:06;;;;;;;;;;;;;;;16.99;59.08;100349.97;5018182;28;1215;-55
2022/07/31 04:40:35;;;;;;;;;;;;;;;16.99;58.89;100341.72;5018358;28;1339;-54
2022/07/31 04:43:00;;;;;;;;;;;;;;;16.96;58.74;100342.31;5017895;28;1050;-48
2022/07/31 04:45:26;;;;;;;;;;;;;;;16.92;58.41;100341.22;5038000;28;1239;-54
2022/07/31 04:47:52;;;;;;;;;;;;;;;16.87;58.56;100344.81;5028000;28;1163;-54
2022/07/31 04:50:18;;;;;;;;;;;;;;;16.89;58.33;100352.78;5039580;28;1996;-52
2022/07/31 04:52:54;;;;;;;;;;;;;;;16.88;58.40;100354.69;5039479;28;2649;-54
2022/07/31 04:55:20;;;;;;;;;;;;;;;16.88;58.12;100349.22;5012403;28;1265;-53
2022/07/31 04:57:45;;;;;;;;;;;;;;;16.83;58.48;100351.16;5021871;28;1030;-48
2022/07/31 05:00:11;;;;;;;;;;;;;;;16.82;58.62;100350.34;5039717;28;1073;-53
2022/07/31 05:02:37;;;;;;;;;;;;;;;16.83;58.42;100351.16;5021337;28;1169;-52
2022/07/31 05:05:03;;;;;;;;;;;;;;;16.78;58.72;100343.78;5005006;28;1199;-50
2022/07/31 05:07:33;;;;;;;;;;;;;;;16.83;58.49;100346.50;5021349;28;1222;-54
2022/07/31 05:10:03;;;;;;;;;;;;;;;16.84;58.46;100350.84;5027924;28;1918;-56
2022/07/31 05:12:29;;;;;;;;;;;;;;;16.80;58.35;100347.03;5021037;28;1102;-56
2022/07/31 05:14:55;;;;;;;;;;;;;;;16.79;58.49;100350.06;5021626;28;1312;-54
2022/07/31 05:17:20;;;;;;;;;;;;;;;16.81;58.30;100350.63;5039104;28;1026;-53
2022/07/31 05:20:18;;;;;;;;;;;;;;;16.73;58.07;100358.38;5004042;28;1084;-57
2022/07/31 05:23:06;;;;;;;;;;;;;;;16.74;58.20;100357.22;5037343;28;2427;-55
2022/07/31 05:25:50;;;;;;;;;;;;;;;16.72;58.03;100362.22;5026480;28;1213;-55
2022/07/31 05:28:16;;;;;;;;;;;;;;;16.69;58.03;100359.19;5020394;28;1883;-58
2022/07/31 05:30:41;;;;;;;;;;;;;;;16.74;58.00;100354.50;5038693;28;1080;-57
2022/07/31 05:33:07;;;;;;;;;;;;;;;16.66;58.03;100357.88;5021306;28;1186;-55
2022/07/31 05:35:32;;;;;;;;;;;;;;;16.73;57.69;100357.53;5023264;28;1112;-53
2022/07/31 05:37:58;;;;;;;;;;;;;;;16.74;57.73;100354.50;5024218;28;1230;-57
2022/07/31 05:40:43;;;;;;;;;;;;;;;16.71;57.48;100360.56;5038632;28;1452;-57
2022/07/31 05:43:47;;;;;;;;;;;;;;;16.72;57.49;100366.88;5018399;28;1347;-56
2022/07/31 05:46:22;;;;;;;;;;;;;;;16.71;57.67;100368.78;5020977;28;1233;-54
2022/07/31 05:48:48;;;;;;;;;;;;;;;16.70;58.42;100355.34;5020358;28;1985;-57
2022/07/31 05:51:13;;;;;;;;;;;;;;;18.41;54.92;100350.69;5028280;28;1326;-55
2022/07/31 05:53:39;;;;;;;;;;;;;;;17.23;56.14;100349.22;5021111;28;2762;-56
2022/07/31 05:56:27;;;;;;;;;;;;;;;18.85;54.41;100348.66;5002363;28;1315;-56
2022/07/31 05:58:56;;;;;;;;;;;;;;;15.15;64.65;100363.22;5020333;28;1041;-56
2022/07/31 06:01:22;;;;;;;;;;;;;;;16.68;56.95;100355.63;5016883;28;1208;-57
2022/07/31 06:03:48;;;;;;;;;;;;;;;18.03;57.64;100361.59;5022736;28;1174;-58
2022/07/31 06:06:18;;;;;;;;;;;;;;;15.14;63.36;100354.19;5038387;28;1001;-58
2022/07/31 06:08:44;;;;;;;;;;;;;;;17.69;59.91;100356.22;5019765;28;1952;-58
2022/07/31 06:11:09;;;;;;;;;;;;;;;18.47;56.75;100346.75;5020051;28;994;-58
2022/07/31 06:13:36;;;;;;;;;;;;;;;15.30;64.25;100349.53;5008024;28;1304;-59
2022/07/31 06:16:13;;;;;;;;;;;;;;;18.10;59.49;100348.34;5020421;28;1465;-60
2022/07/31 06:18:39;;;;;;;;;;;;;;;15.46;63.91;100335.81;5020204;28;1167;-60
2022/07/31 06:21:04;;;;;;;;;;;;;;;17.06;62.27;100350.44;5024872;28;1317;-58
2022/07/31 06:23:30;;;;;;;;;;;;;;;18.54;57.94;100353.81;5018331;28;2557;-60
2022/07/31 06:26:05;;;;;;;;;;;;;;;15.36;65.12;100350.34;5019458;28;1376;-60
2022/07/31 06:28:30;;;;;;;;;;;;;;;16.76;57.01;100346.81;5024615;28;1894;-59
2022/07/31 06:30:56;;;;;;;;;;;;;;;16.96;54.88;100347.78;5019436;28;1626;-59
2022/07/31 06:33:21;;;;;;;;;;;;;;;17.04;54.21;100344.44;5018929;28;1156;-58
2022/07/31 06:35:47;;;;;;;;;;;;;;;18.10;57.23;100348.34;5035937;28;1219;-58
2022/07/31 06:38:32;;;;;;;;;;;;;;;15.82;63.89;100350.28;5038472;28;1041;-60
2022/07/31 06:41:48;;;;;;;;;;;;;;;18.87;59.08;100346.44;5037635;28;1148;-57
2022/07/31 06:44:29;;;;;;;;;;;;;;;15.37;65.94;100330.06;5037669;28;946;-59
2022/07/31 06:47:13;;;;;;;;;;;;;;;17.00;56.70;100328.78;5031365;28;958;-57
2022/07/31 06:50:01;;;;;;;;;;;;;;;17.12;54.66;100334.75;5020028;28;1902;-60
2022/07/31 06:52:32;;;;;;;;;;;;;;;17.07;53.75;100332.88;5023068;28;2539;-61
2022/07/31 06:54:58;;;;;;;;;;;;;;;18.05;56.18;100329.13;5040411;28;1013;-59
2022/07/31 06:57:24;;;;;;;;;;;;;;;15.18;63.21;100324.31;5019318;28;1234;-60
2022/07/31 06:59:49;;;;;;;;;;;;;;;16.92;59.31;100324.75;5018243;28;1188;-61
2022/07/31 07:02:15;;;;;;;;;;;;;;;17.67;60.47;100318.00;5020729;28;1111;-60
2022/07/31 07:04:40;;;;;;;;;;;;;;;15.51;64.39;100317.44;5019563;28;1282;-57
2022/07/31 07:07:07;;;;;;;;;;;;;;;17.53;59.87;100317.03;5019393;28;1396;-57
2022/07/31 07:09:33;;;;;;;;;;;;;;;15.90;63.22;100314.06;5018456;28;1902;-59
2022/07/31 07:11:58;;;;;;;;;;;;;;;16.05;60.72;100326.06;5022784;28;1096;-58
2022/07/31 07:14:24;;;;;;;;;;;;;;;17.90;59.71;100321.03;5023812;28;1278;-58
2022/07/31 07:16:50;;;;;;;;;;;;;;;17.50;57.41;100315.72;5018451;28;1140;-59
2022/07/31 07:19:16;;;;;;;;;;;;;;;17.40;55.34;100316.63;5023962;28;1158;-59
2022/07/31 07:21:42;;;;;;;;;;;;;;;17.41;53.97;100314.69;5019255;28;1147;-57
2022/07/31 07:24:08;;;;;;;;;;;;;;;17.32;53.14;100311.78;5022256;28;2417;-57
2022/07/31 07:26:43;;;;;;;;;;;;;;;17.34;52.57;100315.03;5002822;28;1218;-57
2022/07/31 07:29:09;;;;;;;;;;;;;;;17.31;52.01;100314.81;5016201;28;1979;-54
2022/07/31 07:31:35;;;;;;;;;;;;;;;17.32;51.48;100314.53;5019314;28;1251;-58
2022/07/31 07:34:01;;;;;;;;;;;;;;;17.43;50.98;100310.56;5036833;28;1044;-60
2022/07/31 07:36:26;;;;;;;;;;;;;;;17.38;50.66;100310.59;5036771;28;1008;-58
2022/07/31 07:38:58;;;;;;;;;;;;;;;17.31;50.92;100309.31;5019130;28;1401;-60
2022/07/31 07:41:24;;;;;;;;;;;;;;;18.21;52.72;100310.47;5036598;28;993;-59
2022/07/31 07:43:49;;;;;;;;;;;;;;;14.82;62.06;100307.91;5036289;28;1116;-58
2022/07/31 07:46:15;;;;;;;;;;;;;;;16.85;55.10;100305.81;5018915;28;1171;-60
2022/07/31 07:48:45;;;;;;;;;;;;;;;16.97;57.77;100301.91;5018422;28;1902;-59
2022/07/31 07:51:16;;;;;;;;;;;;;;;16.57;61.25;100304.66;5018687;28;1159;-61
2022/07/31 07:53:55;;;;;;;;;;;;;;;19.03;57.61;100299.34;5012402;28;2449;-59
2022/07/31 07:56:39;;;;;;;;;;;;;;;15.13;64.80;100295.03;5017013;28;1033;-58
2022/07/31 07:59:23;;;;;;;;;;;;;;;16.87;57.15;100297.28;5010092;28;1105;-59
2022/07/31 08:02:12;;;;;;;;;;;;;;;17.24;54.16;100296.72;5013981;28;1009;-59
2022/07/31 08:04:38;;;;;;;;;;;;;;;17.31;52.79;100295.56;5014776;28;1459;-60
2022/07/31 08:07:03;;;;;;;;;;;;;;;17.31;52.25;100301.88;5015932;28;1315;-58
2022/07/31 08:09:33;;;;;;;;;;;;;;;17.27;51.66;100306.31;5014918;28;1984;-59
2022/07/31 08:12:17;;;;;;;;;;;;;;;17.35;50.96;100297.44;5015714;28;1054;-58
2022/07/31 08:15:09;;;;;;;;;;;;;;;17.32;50.91;100303.53;4991608;28;1195;-60
2022/07/31 08:17:53;;;;;;;;;;;;;;;17.43;50.56;100310.56;5011920;28;1096;-58
2022/07/31 08:20:20;;;;;;;;;;;;;;;17.36;50.21;100310.09;5021176;28;1252;-58
2022/07/31 08:22:47;;;;;;;;;;;;;;;17.39;50.35;100314.16;5018691;28;2408;-58
2022/07/31 08:25:12;;;;;;;;;;;;;;;17.40;50.12;100299.31;5016848;28;915;-61
2022/07/31 08:27:37;;;;;;;;;;;;;;;18.27;52.19;100300.22;5018636;28;1104;-60
2022/07/31 08:30:04;;;;;;;;;;;;;;;15.53;60.83;100298.81;5024073;28;1989;-57
2022/07/31 08:32:29;;;;;;;;;;;;;;;18.63;56.52;100305.22;5029776;28;1424;-60
2022/07/31 08:35:15;;;;;;;;;;;;;;;16.02;63.06;100300.03;5020636;28;1280;-56
2022/07/31 08:37:42;;;;;;;;;;;;;;;16.34;59.75;100300.69;5018397;28;1334;-56
2022/07/31 08:40:07;;;;;;;;;;;;;;;17.17;55.01;100295.44;5029783;28;1201;-57
2022/07/31 08:42:35;;;;;;;;;;;;;;;17.41;53.01;100299.03;5023689;28;1190;-59
2022/07/31 08:45:01;;;;;;;;;;;;;;;17.40;52.23;100296.56;5018568;28;1216;-58
2022/07/31 08:47:29;;;;;;;;;;;;;;;17.43;51.51;100294.06;5019971;28;1124;-61
2022/07/31 08:49:59;;;;;;;;;;;;;;;17.43;51.23;100294.06;5003006;28;1910;-62
2022/07/31 08:52:25;;;;;;;;;;;;;;;17.50;50.80;100290.13;5019724;28;2493;-59
2022/07/31 08:55:05;;;;;;;;;;;;;;;17.48;50.56;100290.44;5018182;28;1258;-59
2022/07/31 08:57:30;;;;;;;;;;;;;;;17.55;50.27;100285.41;5000874;28;1135;-59
2022/07/31 08:59:56;;;;;;;;;;;;;;;17.55;49.78;100285.41;5024747;28;1172;-60
2022/07/31 09:02:22;;;;;;;;;;;;;;;17.46;50.02;100276.19;5019302;28;1104;-59
2022/07/31 09:05:15;;;;;;;;;;;;;;;17.45;49.99;100278.09;5013144;28;1152;-57
2022/07/31 09:07:41;;;;;;;;;;;;;;;17.52;49.78;100279.69;5017974;28;1286;-58
2022/07/31 09:10:07;;;;;;;;;;;;;;;17.52;49.66;100282.44;5007335;28;1910;-60
2022/07/31 09:12:33;;;;;;;;;;;;;;;17.49;49.66;100280.25;5019440;28;1002;-59
2022/07/31 09:15:03;;;;;;;;;;;;;;;17.55;49.22;100276.34;5018677;28;1283;-59
2022/07/31 09:17:35;;;;;;;;;;;;;;;17.49;49.47;100267.34;5025654;28;1282;-58
2022/07/31 09:20:01;;;;;;;;;;;;;;;17.52;49.33;100276.94;5004544;28;1248;-58
2022/07/31 09:22:32;;;;;;;;;;;;;;;17.52;49.03;100277.75;5016144;28;2486;-59
2022/07/31 09:25:07;;;;;;;;;;;;;;;17.56;49.14;100269.75;5017792;28;1226;-57
2022/07/31 09:27:33;;;;;;;;;;;;;;;17.49;49.31;100272.00;5018158;28;1082;-58
2022/07/31 09:29:58;;;;;;;;;;;;;;;17.50;48.92;100268.16;5018027;28;1902;-56
2022/07/31 09:32:44;;;;;;;;;;;;;;;17.52;48.95;100268.69;5017806;28;1174;-59
2022/07/31 09:35:15;;;;;;;;;;;;;;;17.42;49.04;100270.44;5017505;28;1367;-56
2022/07/31 09:37:44;;;;;;;;;;;;;;;17.53;48.89;100275.81;5018009;28;1220;-58
2022/07/31 09:40:35;;;;;;;;;;;;;;;17.50;48.83;100265.41;5019048;28;1191;-58
2022/07/31 09:43:23;;;;;;;;;;;;;;;17.56;48.87;100275.25;5018446;28;1009;-59
2022/07/31 09:45:56;;;;;;;;;;;;;;;17.57;48.76;100257.63;5017686;28;1154;-59
2022/07/31 09:48:22;;;;;;;;;;;;;;;17.52;48.98;100265.94;5017209;28;1918;-59
2022/07/31 09:51:06;;;;;;;;;;;;;;;17.56;48.71;100265.06;5017371;28;1267;-57
2022/07/31 09:53:39;;;;;;;;;;;;;;;17.55;48.70;100277.16;5022478;28;2606;-58
2022/07/31 09:56:16;;;;;;;;;;;;;;;17.58;48.75;100275.75;5020390;28;1075;-58
2022/07/31 09:58:42;;;;;;;;;;;;;;;17.54;48.79;100281.00;5020520;28;2163;-57
2022/07/31 10:01:08;;;;;;;;;;;;;;;17.52;48.66;100276.94;5018767;28;1327;-57
2022/07/31 10:03:35;;;;;;;;;;;;;;;17.53;48.99;100275.81;5020429;28;1463;-56
2022/07/31 10:06:00;;;;;;;;;;;;;;;17.55;48.92;100270.84;5020530;28;1186;-58
2022/07/31 10:08:26;;;;;;;;;;;;;;;17.58;48.73;100275.75;5035648;28;1922;-58
2022/07/31 10:11:10;;;;;;;;;;;;;;;17.55;48.66;100270.84;5042113;28;974;-58
2022/07/31 10:13:46;;;;;;;;;;;;;;;17.51;48.98;100275.28;5023264;28;1281;-58
2022/07/31 10:16:12;;;;;;;;;;;;;;;17.57;48.66;100282.34;5019920;28;1129;-58
2022/07/31 10:18:41;;;;;;;;;;;;;;;17.62;48.77;100287.81;5038863;28;1148;-55
2022/07/31 10:21:34;;;;;;;;;;;;;;;17.64;48.86;100287.50;5033583;28;1157;-57
2022/07/31 10:24:11;;;;;;;;;;;;;;;17.60;48.92;100277.09;5033087;28;2646;-57
2022/07/31 10:26:37;;;;;;;;;;;;;;;17.61;48.79;100266.91;5020129;28;1134;-59
2022/07/31 10:29:03;;;;;;;;;;;;;;;17.55;48.92;100274.41;5003642;28;1910;-58
2022/07/31 10:31:30;;;;;;;;;;;;;;;17.58;48.87;100273.00;5020046;28;1522;-60
2022/07/31 10:33:56;;;;;;;;;;;;;;;17.70;48.58;100283.59;5019836;28;1119;-60
2022/07/31 10:36:40;;;;;;;;;;;;;;;17.64;48.80;100276.50;5032679;28;887;-61
2022/07/31 10:39:34;;;;;;;;;;;;;;;17.64;48.78;100271.81;5019765;28;1312;-62
2022/07/31 10:42:41;;;;;;;;;;;;;;;17.64;48.64;100269.06;5020350;28;1112;-64
2022/07/31 10:45:08;;;;;;;;;;;;;;;17.62;48.65;100263.88;5018562;28;1160;-60
2022/07/31 10:48:09;;;;;;;;;;;;;;;17.61;48.64;100269.66;5026404;28;1174;-62
2022/07/31 10:51:04;;;;;;;;;;;;;;;17.63;48.51;100270.22;5037071;28;1327;-63
2022/07/31 10:54:02;;;;;;;;;;;;;;;17.62;48.46;100263.88;5035296;28;2534;-65
2022/07/31 10:57:02;;;;;;;;;;;;;;;17.62;48.29;100263.88;5018504;28;1418;-61
2022/07/31 10:59:38;;;;;;;;;;;;;;;17.63;48.39;100264.72;5010409;28;1284;-60
2022/07/31 11:02:33;;;;;;;;;;;;;;;17.56;48.39;100256.00;5037598;28;1200;-62
2022/07/31 11:05:23;;;;;;;;;;;;;;;17.60;48.33;100257.06;5036966;28;1607;-60
2022/07/31 11:08:05;;;;;;;;;;;;;;;17.64;48.36;100255.31;5019492;28;1240;-64
2022/07/31 11:10:52;;;;;;;;;;;;;;;17.61;48.47;100255.91;5019553;28;1119;-61
2022/07/31 11:13:46;;;;;;;;;;;;;;;17.64;48.50;100255.31;5035300;28;1334;-67
2022/07/31 11:16:21;;;;;;;;;;;;;;;17.58;48.58;100256.50;5019150;28;1271;-64
2022/07/31 11:19:02;;;;;;;;;;;;;;;17.68;48.34;100256.38;5019516;28;1162;-65
2022/07/31 11:21:31;;;;;;;;;;;;;;;17.58;48.49;100257.31;5037212;28;1164;-63
2022/07/31 11:23:57;;;;;;;;;;;;;;;17.63;48.46;100261.97;5018855;28;2811;-61
2022/07/31 11:26:22;;;;;;;;;;;;;;;17.56;48.63;100248.56;5018344;28;982;-62
2022/07/31 11:28:47;;;;;;;;;;;;;;;17.62;48.48;100252.06;5019590;28;1984;-66
2022/07/31 11:31:13;;;;;;;;;;;;;;;17.59;48.33;100252.66;5033529;28;1096;-58
2022/07/31 11:33:42;;;;;;;;;;;;;;;17.65;48.49;100259.72;5034153;28;1006;-61
2022/07/31 11:36:09;;;;;;;;;;;;;;;17.64;48.33;100260.81;5037207;28;1111;-60
2022/07/31 11:38:35;;;;;;;;;;;;;;;17.68;48.35;100256.38;5037985;28;1306;-61
2022/07/31 11:41:00;;;;;;;;;;;;;;;17.63;48.52;100248.22;5033464;28;1077;-61
2022/07/31 11:43:26;;;;;;;;;;;;;;;17.00;49.96;100246.41;5036825;28;1001;-61
2022/07/31 11:45:51;;;;;;;;;;;;;;;16.48;54.95;100248.72;5018207;28;1177;-63
2022/07/31 11:48:17;;;;;;;;;;;;;;;17.88;52.53;100243.47;5036318;28;1029;-61
2022/07/31 11:50:43;;;;;;;;;;;;;;;15.17;58.52;100246.03;5036980;28;2004;-59
2022/07/31 11:53:08;;;;;;;;;;;;;;;17.93;54.92;100237.94;5046906;28;2581;-61
2022/07/31 11:55:43;;;;;;;;;;;;;;;17.51;54.24;100245.88;5035649;28;1001;-60
2022/07/31 11:58:10;;;;;;;;;;;;;;;16.04;60.34;100236.66;5039453;28;1196;-61
2022/07/31 12:00:35;;;;;;;;;;;;;;;17.84;55.72;100232.28;5032759;28;1259;-60
2022/07/31 12:03:00;;;;;;;;;;;;;;;15.31;60.37;100225.16;5035698;28;868;-60
2022/07/31 12:05:26;;;;;;;;;;;;;;;17.73;57.83;100226.06;5036305;28;1029;-59
2022/07/31 12:07:51;;;;;;;;;;;;;;;17.74;55.48;100219.47;5042002;28;1315;-60
2022/07/31 12:10:17;;;;;;;;;;;;;;;15.01;61.67;100223.31;5040579;28;1983;-60
2022/07/31 12:12:42;;;;;;;;;;;;;;;17.87;56.30;100220.69;5018761;28;1219;-60
2022/07/31 12:15:12;;;;;;;;;;;;;;;15.75;59.78;100218.13;5033156;28;834;-60
2022/07/31 12:17:37;;;;;;;;;;;;;;;17.21;59.22;100222.31;5032308;28;1097;-60
2022/07/31 12:20:06;;;;;;;;;;;;;;;17.87;56.60;100215.16;5024463;28;975;-60
2022/07/31 12:22:31;;;;;;;;;;;;;;;14.72;63.83;100212.94;5035992;28;2677;-59
2022/07/31 12:25:00;;;;;;;;;;;;;;;18.11;57.71;100219.81;5036472;28;1021;-60
2022/07/31 12:27:26;;;;;;;;;;;;;;;16.10;60.66;100210.84;5035910;28;1109;-60
2022/07/31 12:29:51;;;;;;;;;;;;;;;16.87;60.97;100209.41;5036155;28;1905;-60
2022/07/31 12:32:23;;;;;;;;;;;;;;;18.00;57.45;100202.63;5035887;28;1026;-60
2022/07/31 12:34:48;;;;;;;;;;;;;;;14.76;63.69;100197.63;5035752;28;978;-60
2022/07/31 12:37:15;;;;;;;;;;;;;;;17.80;59.04;100200.97;5018329;28;1482;-60
2022/07/31 12:39:47;;;;;;;;;;;;;;;16.42;60.10;100202.13;5033607;28;1148;-59
2022/07/31 12:42:29;;;;;;;;;;;;;;;16.62;61.71;100208.56;5034379;28;1093;-60
2022/07/31 12:44:55;;;;;;;;;;;;;;;18.12;57.78;100192.00;5030999;28;1107;-60
2022/07/31 12:47:20;;;;;;;;;;;;;;;14.85;64.55;100189.66;5035864;28;1259;-60
2022/07/31 12:49:46;;;;;;;;;;;;;;;16.82;56.35;100195.75;5035617;28;1982;-63
2022/07/31 12:52:11;;;;;;;;;;;;;;;17.21;53.48;100203.09;5035550;28;1132;-62
2022/07/31 12:54:36;;;;;;;;;;;;;;;17.25;52.61;100204.94;5035142;28;2659;-61
2022/07/31 12:57:02;;;;;;;;;;;;;;;17.28;51.90;100206.28;5035887;28;1101;-65
2022/07/31 12:59:27;;;;;;;;;;;;;;;17.35;51.18;100195.75;5035749;28;1049;-61
2022/07/31 13:01:53;;;;;;;;;;;;;;;17.41;50.85;100194.56;5035467;28;1002;-64